Bankston, Alabama
Current Conditions -  °F | °C
As of 1:55 PM on Thursday 30 Oct 2014 (Local Time) from KJFX Reporting Station
Clear Clear  
Wind Chill: 70°   Ceiling: Unl
Heat Index: 70°   Visibility: 10mi
Dew Point: 37°   Wind: 3mph
Humidity: 31%   Direction: 270°W
Pressure: 30.08"   Gusts: NA
Location:  33.67°N, 87.67°W
Report Text: KJFX 301855Z AUTO 27003KT 10SM CLR 21/03 A3008 RMK A02 P-128
Loading
Personal Weather Stations






























Interactive Weather Map
Tropical Storm Tracking
New forecast layout! Learn more

10-Day Weather Forecast

Advertisements
Track Severe Weather on mobile